Lower Peach Tree, Alabama
Current Conditions -  °F | °C
As of 11:53 AM on Tuesday 21 Oct 2014 (Local Time) from KGZH Reporting Station
Clear Clear  
Wind Chill: 76°   Ceiling: Unl
Heat Index: 76°   Visibility: 10mi
Dew Point: 48°   Wind: 7mph
Humidity: 37%   Direction: NA
Pressure: 30.05"   Gusts: NA
Location:  31.84°N, 87.55°W
Report Text: KGZH 211653Z AUTO VRB06KT 10SM CLR 24/09 A3005 RMK AO2 SLP172 T02440089
Loading
Personal Weather Stations






























Interactive Weather Map New forecast layout! Learn more

10-Day Weather Forecast

Advertisements
Track Severe Weather on mobile